sensor_id;sensor_type;location;lat;lon;timestamp;P1;durP1;ratioP1;P2;durP2;ratioP2
57191;SDS011;43052;52.588;13.396;2023-08-31T00:00:15;7.93;;;5.60;;
57191;SDS011;43052;52.588;13.396;2023-08-31T00:02:40;5.95;;;5.35;;
57191;SDS011;43052;52.588;13.396;2023-08-31T00:05:06;7.47;;;5.43;;
57191;SDS011;43052;52.588;13.396;2023-08-31T00:07:31;6.43;;;5.82;;
57191;SDS011;43052;52.588;13.396;2023-08-31T00:09:57;8.38;;;5.32;;
57191;SDS011;43052;52.588;13.396;2023-08-31T00:12:23;5.78;;;5.05;;
57191;SDS011;43052;52.588;13.396;2023-08-31T00:14:49;6.78;;;5.80;;
57191;SDS011;43052;52.588;13.396;2023-08-31T00:17:15;6.22;;;5.57;;
57191;SDS011;43052;52.588;13.396;2023-08-31T00:19:40;6.25;;;5.65;;
57191;SDS011;43052;52.588;13.396;2023-08-31T00:22:05;5.75;;;5.18;;
57191;SDS011;43052;52.588;13.396;2023-08-31T00:24:31;6.50;;;5.38;;
57191;SDS011;43052;52.588;13.396;2023-08-31T00:27:01;6.72;;;5.57;;
57191;SDS011;43052;52.588;13.396;2023-08-31T00:29:28;7.47;;;5.65;;
57191;SDS011;43052;52.588;13.396;2023-08-31T00:31:54;6.20;;;5.60;;
57191;SDS011;43052;52.588;13.396;2023-08-31T00:34:20;6.63;;;5.57;;
57191;SDS011;43052;52.588;13.396;2023-08-31T00:36:45;6.35;;;5.63;;
57191;SDS011;43052;52.588;13.396;2023-08-31T00:39:10;6.00;;;5.40;;
57191;SDS011;43052;52.588;13.396;2023-08-31T00:41:36;7.03;;;6.22;;
57191;SDS011;43052;52.588;13.396;2023-08-31T00:44:02;7.13;;;6.10;;
57191;SDS011;43052;52.588;13.396;2023-08-31T00:46:29;6.68;;;5.93;;
57191;SDS011;43052;52.588;13.396;2023-08-31T00:48:56;6.53;;;5.85;;
57191;SDS011;43052;52.588;13.396;2023-08-31T00:51:21;6.30;;;5.55;;
57191;SDS011;43052;52.588;13.396;2023-08-31T00:53:46;6.40;;;5.70;;
57191;SDS011;43052;52.588;13.396;2023-08-31T00:56:13;6.45;;;5.85;;
57191;SDS011;43052;52.588;13.396;2023-08-31T00:58:38;6.88;;;6.18;;
57191;SDS011;43052;52.588;13.396;2023-08-31T01:01:18;6.82;;;6.13;;
57191;SDS011;43052;52.588;13.396;2023-08-31T01:06:54;9.50;;;6.93;;
57191;SDS011;43052;52.588;13.396;2023-08-31T01:09:34;7.10;;;6.40;;
57191;SDS011;43052;52.588;13.396;2023-08-31T01:12:07;7.97;;;6.63;;
57191;SDS011;43052;52.588;13.396;2023-08-31T01:14:40;7.43;;;6.78;;
57191;SDS011;43052;52.588;13.396;2023-08-31T01:17:28;7.63;;;6.93;;
57191;SDS011;43052;52.588;13.396;2023-08-31T01:19:55;8.13;;;7.43;;
57191;SDS011;43052;52.588;13.396;2023-08-31T01:25:08;7.47;;;6.77;;
57191;SDS011;43052;52.588;13.396;2023-08-31T01:27:34;8.02;;;7.25;;
57191;SDS011;43052;52.588;13.396;2023-08-31T01:30:00;7.97;;;7.18;;
57191;SDS011;43052;52.588;13.396;2023-08-31T01:32:28;8.38;;;7.50;;
57191;SDS011;43052;52.588;13.396;2023-08-31T01:34:53;8.57;;;7.68;;
57191;SDS011;43052;52.588;13.396;2023-08-31T01:37:24;7.50;;;6.63;;
57191;SDS011;43052;52.588;13.396;2023-08-31T01:39:55;7.15;;;6.45;;
57191;SDS011;43052;52.588;13.396;2023-08-31T01:42:24;7.32;;;6.03;;
57191;SDS011;43052;52.588;13.396;2023-08-31T01:44:52;7.35;;;6.20;;
57191;SDS011;43052;52.588;13.396;2023-08-31T01:47:20;7.63;;;5.88;;
57191;SDS011;43052;52.588;13.396;2023-08-31T01:49:46;6.85;;;6.20;;
57191;SDS011;43052;52.588;13.396;2023-08-31T01:52:11;7.78;;;6.07;;
57191;SDS011;43052;52.588;13.396;2023-08-31T01:54:36;5.90;;;5.30;;
57191;SDS011;43052;52.588;13.396;2023-08-31T01:57:04;5.97;;;5.13;;
57191;SDS011;43052;52.588;13.396;2023-08-31T01:59:31;5.75;;;5.15;;
57191;SDS011;43052;52.588;13.396;2023-08-31T02:01:56;5.90;;;4.90;;
57191;SDS011;43052;52.588;13.396;2023-08-31T02:04:21;5.38;;;4.88;;
57191;SDS011;43052;52.588;13.396;2023-08-31T02:06:47;5.45;;;4.90;;
57191;SDS011;43052;52.588;13.396;2023-08-31T02:09:13;5.40;;;4.60;;
57191;SDS011;43052;52.588;13.396;2023-08-31T02:11:38;6.18;;;5.07;;
57191;SDS011;43052;52.588;13.396;2023-08-31T02:14:04;5.30;;;4.80;;
57191;SDS011;43052;52.588;13.396;2023-08-31T02:16:30;5.65;;;4.50;;
57191;SDS011;43052;52.588;13.396;2023-08-31T02:18:56;5.18;;;4.32;;
57191;SDS011;43052;52.588;13.396;2023-08-31T02:21:21;4.28;;;3.88;;
57191;SDS011;43052;52.588;13.396;2023-08-31T02:23:47;4.60;;;3.85;;
57191;SDS011;43052;52.588;13.396;2023-08-31T02:26:13;5.68;;;3.85;;
57191;SDS011;43052;52.588;13.396;2023-08-31T02:28:38;4.35;;;3.47;;
57191;SDS011;43052;52.588;13.396;2023-08-31T02:31:03;4.32;;;3.20;;
57191;SDS011;43052;52.588;13.396;2023-08-31T02:33:28;5.00;;;3.30;;
57191;SDS011;43052;52.588;13.396;2023-08-31T02:35:54;5.43;;;3.60;;
57191;SDS011;43052;52.588;13.396;2023-08-31T02:38:20;4.13;;;3.22;;
57191;SDS011;43052;52.588;13.396;2023-08-31T02:40:46;4.60;;;3.35;;
57191;SDS011;43052;52.588;13.396;2023-08-31T02:43:12;4.55;;;3.60;;
57191;SDS011;43052;52.588;13.396;2023-08-31T02:45:38;4.13;;;3.42;;
57191;SDS011;43052;52.588;13.396;2023-08-31T02:48:03;4.50;;;3.65;;
57191;SDS011;43052;52.588;13.396;2023-08-31T02:50:29;4.65;;;3.63;;
57191;SDS011;43052;52.588;13.396;2023-08-31T02:52:54;5.10;;;3.83;;
57191;SDS011;43052;52.588;13.396;2023-08-31T02:55:20;4.72;;;3.72;;
57191;SDS011;43052;52.588;13.396;2023-08-31T02:57:46;4.22;;;3.60;;
57191;SDS011;43052;52.588;13.396;2023-08-31T03:00:11;5.20;;;3.92;;
57191;SDS011;43052;52.588;13.396;2023-08-31T03:02:38;4.78;;;4.00;;
57191;SDS011;43052;52.588;13.396;2023-08-31T03:05:03;5.28;;;3.60;;
57191;SDS011;43052;52.588;13.396;2023-08-31T03:07:29;5.07;;;3.95;;
57191;SDS011;43052;52.588;13.396;2023-08-31T03:09:54;4.65;;;4.15;;
57191;SDS011;43052;52.588;13.396;2023-08-31T03:12:19;4.70;;;3.95;;
57191;SDS011;43052;52.588;13.396;2023-08-31T03:14:45;5.53;;;4.00;;
57191;SDS011;43052;52.588;13.396;2023-08-31T03:17:10;5.10;;;4.40;;
57191;SDS011;43052;52.588;13.396;2023-08-31T03:19:35;5.13;;;4.03;;
57191;SDS011;43052;52.588;13.396;2023-08-31T03:22:01;5.07;;;4.25;;
57191;SDS011;43052;52.588;13.396;2023-08-31T03:24:26;6.57;;;4.70;;
57191;SDS011;43052;52.588;13.396;2023-08-31T03:26:51;6.63;;;4.72;;
57191;SDS011;43052;52.588;13.396;2023-08-31T03:29:17;5.88;;;4.60;;
57191;SDS011;43052;52.588;13.396;2023-08-31T03:31:42;6.80;;;4.72;;
57191;SDS011;43052;52.588;13.396;2023-08-31T03:34:07;6.05;;;4.80;;
57191;SDS011;43052;52.588;13.396;2023-08-31T03:36:32;6.82;;;4.63;;
57191;SDS011;43052;52.588;13.396;2023-08-31T03:38:58;5.90;;;5.10;;
57191;SDS011;43052;52.588;13.396;2023-08-31T03:41:23;5.40;;;4.53;;
57191;SDS011;43052;52.588;13.396;2023-08-31T03:43:49;5.53;;;4.80;;
57191;SDS011;43052;52.588;13.396;2023-08-31T03:46:14;6.32;;;4.70;;
57191;SDS011;43052;52.588;13.396;2023-08-31T03:48:40;5.72;;;4.57;;
57191;SDS011;43052;52.588;13.396;2023-08-31T03:51:05;6.07;;;4.78;;
57191;SDS011;43052;52.588;13.396;2023-08-31T03:53:30;5.00;;;4.50;;
57191;SDS011;43052;52.588;13.396;2023-08-31T03:55:55;5.70;;;4.28;;
57191;SDS011;43052;52.588;13.396;2023-08-31T03:58:21;5.13;;;4.40;;
57191;SDS011;43052;52.588;13.396;2023-08-31T04:00:48;5.25;;;4.47;;
57191;SDS011;43052;52.588;13.396;2023-08-31T04:03:15;5.88;;;4.30;;
57191;SDS011;43052;52.588;13.396;2023-08-31T04:05:40;6.05;;;4.40;;
57191;SDS011;43052;52.588;13.396;2023-08-31T04:08:05;5.00;;;4.30;;
57191;SDS011;43052;52.588;13.396;2023-08-31T04:10:31;5.38;;;4.53;;
57191;SDS011;43052;52.588;13.396;2023-08-31T04:12:57;6.47;;;5.45;;
57191;SDS011;43052;52.588;13.396;2023-08-31T04:15:22;6.47;;;5.18;;
57191;SDS011;43052;52.588;13.396;2023-08-31T04:17:47;6.53;;;5.53;;
57191;SDS011;43052;52.588;13.396;2023-08-31T04:20:14;7.43;;;5.60;;
57191;SDS011;43052;52.588;13.396;2023-08-31T04:22:40;6.38;;;5.45;;
57191;SDS011;43052;52.588;13.396;2023-08-31T04:25:05;6.90;;;5.95;;
57191;SDS011;43052;52.588;13.396;2023-08-31T04:27:30;7.28;;;6.45;;
57191;SDS011;43052;52.588;13.396;2023-08-31T04:29:56;8.88;;;7.20;;
57191;SDS011;43052;52.588;13.396;2023-08-31T04:32:28;10.05;;;7.65;;
57191;SDS011;43052;52.588;13.396;2023-08-31T04:34:53;7.50;;;6.70;;
57191;SDS011;43052;52.588;13.396;2023-08-31T04:37:19;7.75;;;6.95;;
57191;SDS011;43052;52.588;13.396;2023-08-31T04:39:44;7.90;;;7.10;;
57191;SDS011;43052;52.588;13.396;2023-08-31T04:42:09;8.77;;;7.65;;
57191;SDS011;43052;52.588;13.396;2023-08-31T04:44:34;9.32;;;7.75;;
57191;SDS011;43052;52.588;13.396;2023-08-31T04:47:00;9.75;;;7.57;;
57191;SDS011;43052;52.588;13.396;2023-08-31T04:49:25;8.65;;;7.75;;
57191;SDS011;43052;52.588;13.396;2023-08-31T04:51:51;8.98;;;7.95;;
57191;SDS011;43052;52.588;13.396;2023-08-31T04:54:17;9.05;;;8.10;;
57191;SDS011;43052;52.588;13.396;2023-08-31T04:56:42;9.43;;;8.18;;
57191;SDS011;43052;52.588;13.396;2023-08-31T04:59:07;9.68;;;8.57;;
57191;SDS011;43052;52.588;13.396;2023-08-31T05:01:33;11.07;;;9.25;;
57191;SDS011;43052;52.588;13.396;2023-08-31T05:03:58;12.05;;;10.27;;
57191;SDS011;43052;52.588;13.396;2023-08-31T05:06:23;12.20;;;9.88;;
57191;SDS011;43052;52.588;13.396;2023-08-31T05:08:49;10.80;;;9.70;;
57191;SDS011;43052;52.588;13.396;2023-08-31T05:11:14;11.35;;;9.95;;
57191;SDS011;43052;52.588;13.396;2023-08-31T05:13:40;11.40;;;10.25;;
57191;SDS011;43052;52.588;13.396;2023-08-31T05:16:07;10.80;;;9.30;;
57191;SDS011;43052;52.588;13.396;2023-08-31T05:18:33;11.82;;;10.50;;
57191;SDS011;43052;52.588;13.396;2023-08-31T05:20:58;11.15;;;10.02;;
57191;SDS011;43052;52.588;13.396;2023-08-31T05:23:23;10.13;;;9.13;;
57191;SDS011;43052;52.588;13.396;2023-08-31T05:25:48;10.60;;;9.10;;
57191;SDS011;43052;52.588;13.396;2023-08-31T05:28:14;9.70;;;8.70;;
57191;SDS011;43052;52.588;13.396;2023-08-31T05:30:47;11.13;;;9.05;;
57191;SDS011;43052;52.588;13.396;2023-08-31T05:33:14;9.90;;;8.98;;
57191;SDS011;43052;52.588;13.396;2023-08-31T05:35:39;10.90;;;8.93;;
57191;SDS011;43052;52.588;13.396;2023-08-31T05:38:04;11.60;;;9.07;;
57191;SDS011;43052;52.588;13.396;2023-08-31T05:40:29;10.57;;;8.95;;
57191;SDS011;43052;52.588;13.396;2023-08-31T05:42:55;10.98;;;9.27;;
57191;SDS011;43052;52.588;13.396;2023-08-31T05:45:20;11.32;;;9.55;;
57191;SDS011;43052;52.588;13.396;2023-08-31T05:47:45;11.02;;;9.90;;
57191;SDS011;43052;52.588;13.396;2023-08-31T05:50:10;11.30;;;10.02;;
57191;SDS011;43052;52.588;13.396;2023-08-31T05:52:36;11.98;;;10.73;;
57191;SDS011;43052;52.588;13.396;2023-08-31T05:55:02;11.13;;;10.02;;
57191;SDS011;43052;52.588;13.396;2023-08-31T05:57:28;10.18;;;9.13;;
57191;SDS011;43052;52.588;13.396;2023-08-31T05:59:53;11.38;;;9.60;;
57191;SDS011;43052;52.588;13.396;2023-08-31T06:02:19;11.35;;;10.00;;
57191;SDS011;43052;52.588;13.396;2023-08-31T06:04:44;11.27;;;9.85;;
57191;SDS011;43052;52.588;13.396;2023-08-31T06:07:09;10.60;;;9.50;;
57191;SDS011;43052;52.588;13.396;2023-08-31T06:09:35;10.52;;;9.43;;
57191;SDS011;43052;52.588;13.396;2023-08-31T06:12:00;9.98;;;8.55;;
57191;SDS011;43052;52.588;13.396;2023-08-31T06:14:25;10.35;;;9.25;;
57191;SDS011;43052;52.588;13.396;2023-08-31T06:16:50;9.57;;;8.32;;
57191;SDS011;43052;52.588;13.396;2023-08-31T06:19:17;10.75;;;8.90;;
57191;SDS011;43052;52.588;13.396;2023-08-31T06:21:42;9.38;;;8.38;;
57191;SDS011;43052;52.588;13.396;2023-08-31T06:24:08;11.80;;;8.98;;
57191;SDS011;43052;52.588;13.396;2023-08-31T06:26:38;11.25;;;8.82;;
57191;SDS011;43052;52.588;13.396;2023-08-31T06:29:03;12.63;;;10.43;;
57191;SDS011;43052;52.588;13.396;2023-08-31T06:31:29;9.52;;;8.52;;
57191;SDS011;43052;52.588;13.396;2023-08-31T06:33:54;9.82;;;8.77;;
57191;SDS011;43052;52.588;13.396;2023-08-31T06:36:20;9.43;;;8.43;;
57191;SDS011;43052;52.588;13.396;2023-08-31T06:38:45;9.70;;;8.80;;
57191;SDS011;43052;52.588;13.396;2023-08-31T06:41:10;9.77;;;8.45;;
57191;SDS011;43052;52.588;13.396;2023-08-31T06:43:35;9.48;;;8.48;;
57191;SDS011;43052;52.588;13.396;2023-08-31T06:46:01;9.18;;;8.10;;
57191;SDS011;43052;52.588;13.396;2023-08-31T06:48:26;11.07;;;8.98;;
57191;SDS011;43052;52.588;13.396;2023-08-31T06:50:51;9.52;;;8.30;;
57191;SDS011;43052;52.588;13.396;2023-08-31T06:53:16;10.88;;;9.15;;
57191;SDS011;43052;52.588;13.396;2023-08-31T06:55:41;9.30;;;8.15;;
57191;SDS011;43052;52.588;13.396;2023-08-31T06:58:07;10.25;;;8.43;;
57191;SDS011;43052;52.588;13.396;2023-08-31T07:00:32;10.10;;;7.70;;
57191;SDS011;43052;52.588;13.396;2023-08-31T07:02:57;8.98;;;7.85;;
57191;SDS011;43052;52.588;13.396;2023-08-31T07:05:24;8.90;;;8.00;;
57191;SDS011;43052;52.588;13.396;2023-08-31T07:07:53;8.38;;;7.43;;
57191;SDS011;43052;52.588;13.396;2023-08-31T07:10:19;8.95;;;7.22;;
57191;SDS011;43052;52.588;13.396;2023-08-31T07:12:45;8.10;;;7.30;;
57191;SDS011;43052;52.588;13.396;2023-08-31T07:15:10;7.22;;;6.25;;
57191;SDS011;43052;52.588;13.396;2023-08-31T07:17:36;9.07;;;6.90;;
57191;SDS011;43052;52.588;13.396;2023-08-31T07:20:01;8.25;;;7.18;;
57191;SDS011;43052;52.588;13.396;2023-08-31T07:22:27;8.18;;;6.28;;
57191;SDS011;43052;52.588;13.396;2023-08-31T07:24:52;7.45;;;5.40;;
57191;SDS011;43052;52.588;13.396;2023-08-31T07:27:17;7.63;;;5.60;;
57191;SDS011;43052;52.588;13.396;2023-08-31T07:29:42;8.25;;;6.03;;
57191;SDS011;43052;52.588;13.396;2023-08-31T07:32:08;9.10;;;5.70;;
57191;SDS011;43052;52.588;13.396;2023-08-31T07:34:33;7.03;;;4.93;;
57191;SDS011;43052;52.588;13.396;2023-08-31T07:36:59;7.15;;;4.97;;
57191;SDS011;43052;52.588;13.396;2023-08-31T07:39:24;8.50;;;5.45;;
57191;SDS011;43052;52.588;13.396;2023-08-31T07:41:49;6.35;;;4.70;;
57191;SDS011;43052;52.588;13.396;2023-08-31T07:44:15;7.85;;;4.57;;
57191;SDS011;43052;52.588;13.396;2023-08-31T07:46:40;7.72;;;4.25;;
57191;SDS011;43052;52.588;13.396;2023-08-31T07:49:05;6.78;;;3.80;;
57191;SDS011;43052;52.588;13.396;2023-08-31T07:51:31;4.88;;;4.00;;
57191;SDS011;43052;52.588;13.396;2023-08-31T07:53:56;8.20;;;4.10;;
57191;SDS011;43052;52.588;13.396;2023-08-31T07:56:22;6.70;;;4.05;;
57191;SDS011;43052;52.588;13.396;2023-08-31T07:58:48;5.82;;;4.07;;
57191;SDS011;43052;52.588;13.396;2023-08-31T08:01:14;8.20;;;4.15;;
57191;SDS011;43052;52.588;13.396;2023-08-31T08:03:39;6.95;;;4.53;;
57191;SDS011;43052;52.588;13.396;2023-08-31T08:06:05;6.72;;;4.55;;
57191;SDS011;43052;52.588;13.396;2023-08-31T08:08:30;5.82;;;4.15;;
57191;SDS011;43052;52.588;13.396;2023-08-31T08:10:55;7.15;;;4.55;;
57191;SDS011;43052;52.588;13.396;2023-08-31T08:13:21;4.50;;;3.33;;
57191;SDS011;43052;52.588;13.396;2023-08-31T08:15:46;5.25;;;3.40;;
57191;SDS011;43052;52.588;13.396;2023-08-31T08:18:12;4.75;;;2.90;;
57191;SDS011;43052;52.588;13.396;2023-08-31T08:20:37;3.63;;;2.50;;
57191;SDS011;43052;52.588;13.396;2023-08-31T08:23:02;4.85;;;2.90;;
57191;SDS011;43052;52.588;13.396;2023-08-31T08:25:28;3.25;;;2.40;;
57191;SDS011;43052;52.588;13.396;2023-08-31T08:27:53;3.13;;;2.10;;
57191;SDS011;43052;52.588;13.396;2023-08-31T08:30:18;5.63;;;2.30;;
57191;SDS011;43052;52.588;13.396;2023-08-31T08:32:44;5.85;;;2.33;;
57191;SDS011;43052;52.588;13.396;2023-08-31T08:35:09;3.58;;;2.05;;
57191;SDS011;43052;52.588;13.396;2023-08-31T08:37:34;5.07;;;2.20;;
57191;SDS011;43052;52.588;13.396;2023-08-31T08:40:00;4.57;;;2.50;;
57191;SDS011;43052;52.588;13.396;2023-08-31T08:42:25;4.28;;;2.30;;
57191;SDS011;43052;52.588;13.396;2023-08-31T08:44:54;4.70;;;2.40;;
57191;SDS011;43052;52.588;13.396;2023-08-31T08:47:21;4.50;;;2.40;;
57191;SDS011;43052;52.588;13.396;2023-08-31T08:49:47;4.88;;;2.42;;
57191;SDS011;43052;52.588;13.396;2023-08-31T08:52:13;3.88;;;2.17;;
57191;SDS011;43052;52.588;13.396;2023-08-31T08:54:39;4.30;;;1.80;;
57191;SDS011;43052;52.588;13.396;2023-08-31T08:57:05;2.50;;;1.73;;
57191;SDS011;43052;52.588;13.396;2023-08-31T08:59:30;4.17;;;1.77;;
57191;SDS011;43052;52.588;13.396;2023-08-31T09:01:56;3.65;;;1.90;;
57191;SDS011;43052;52.588;13.396;2023-08-31T09:04:22;2.08;;;1.30;;
57191;SDS011;43052;52.588;13.396;2023-08-31T09:06:47;2.73;;;1.60;;
57191;SDS011;43052;52.588;13.396;2023-08-31T09:09:12;3.80;;;1.92;;
57191;SDS011;43052;52.588;13.396;2023-08-31T09:11:38;3.85;;;1.30;;
57191;SDS011;43052;52.588;13.396;2023-08-31T09:14:16;3.75;;;2.03;;
57191;SDS011;43052;52.588;13.396;2023-08-31T09:16:46;3.70;;;1.45;;
57191;SDS011;43052;52.588;13.396;2023-08-31T09:19:19;2.72;;;1.40;;
57191;SDS011;43052;52.588;13.396;2023-08-31T09:21:46;3.95;;;1.40;;
57191;SDS011;43052;52.588;13.396;2023-08-31T09:24:12;3.17;;;1.30;;
57191;SDS011;43052;52.588;13.396;2023-08-31T09:26:38;3.25;;;1.30;;
57191;SDS011;43052;52.588;13.396;2023-08-31T09:29:17;4.15;;;1.63;;
57191;SDS011;43052;52.588;13.396;2023-08-31T09:31:46;4.40;;;1.60;;
57191;SDS011;43052;52.588;13.396;2023-08-31T09:34:12;4.55;;;1.77;;
57191;SDS011;43052;52.588;13.396;2023-08-31T09:36:38;3.80;;;1.95;;
57191;SDS011;43052;52.588;13.396;2023-08-31T09:39:05;3.60;;;2.03;;
57191;SDS011;43052;52.588;13.396;2023-08-31T09:41:31;3.75;;;1.60;;
57191;SDS011;43052;52.588;13.396;2023-08-31T09:44:01;3.92;;;1.80;;
57191;SDS011;43052;52.588;13.396;2023-08-31T09:46:39;3.95;;;1.60;;
57191;SDS011;43052;52.588;13.396;2023-08-31T09:49:04;2.65;;;1.65;;
57191;SDS011;43052;52.588;13.396;2023-08-31T09:51:31;2.70;;;1.45;;
57191;SDS011;43052;52.588;13.396;2023-08-31T09:53:57;5.88;;;1.83;;
57191;SDS011;43052;52.588;13.396;2023-08-31T09:56:24;3.72;;;1.60;;
57191;SDS011;43052;52.588;13.396;2023-08-31T09:58:54;3.38;;;1.70;;
57191;SDS011;43052;52.588;13.396;2023-08-31T10:01:19;4.00;;;2.50;;
57191;SDS011;43052;52.588;13.396;2023-08-31T10:03:44;4.55;;;2.00;;
57191;SDS011;43052;52.588;13.396;2023-08-31T10:06:10;3.25;;;1.80;;
57191;SDS011;43052;52.588;13.396;2023-08-31T10:08:36;1.85;;;1.45;;
57191;SDS011;43052;52.588;13.396;2023-08-31T10:11:01;3.03;;;1.90;;
57191;SDS011;43052;52.588;13.396;2023-08-31T10:13:30;3.95;;;2.03;;
57191;SDS011;43052;52.588;13.396;2023-08-31T10:16:00;5.22;;;1.88;;
57191;SDS011;43052;52.588;13.396;2023-08-31T10:18:25;2.42;;;1.85;;
57191;SDS011;43052;52.588;13.396;2023-08-31T10:20:51;3.63;;;1.73;;
57191;SDS011;43052;52.588;13.396;2023-08-31T10:23:17;2.72;;;1.75;;
57191;SDS011;43052;52.588;13.396;2023-08-31T10:28:21;2.80;;;1.35;;
57191;SDS011;43052;52.588;13.396;2023-08-31T10:31:00;2.05;;;1.20;;
57191;SDS011;43052;52.588;13.396;2023-08-31T10:33:28;2.40;;;1.27;;
57191;SDS011;43052;52.588;13.396;2023-08-31T10:35:56;3.63;;;1.40;;
57191;SDS011;43052;52.588;13.396;2023-08-31T10:38:31;4.93;;;1.70;;
57191;SDS011;43052;52.588;13.396;2023-08-31T10:41:01;2.60;;;1.60;;
57191;SDS011;43052;52.588;13.396;2023-08-31T10:46:26;3.85;;;1.60;;
57191;SDS011;43052;52.588;13.396;2023-08-31T10:51:21;3.55;;;1.70;;
57191;SDS011;43052;52.588;13.396;2023-08-31T10:53:48;4.15;;;2.35;;
57191;SDS011;43052;52.588;13.396;2023-08-31T10:56:15;4.63;;;2.20;;
57191;SDS011;43052;52.588;13.396;2023-08-31T10:58:41;5.88;;;2.00;;
57191;SDS011;43052;52.588;13.396;2023-08-31T11:01:06;5.53;;;2.50;;
57191;SDS011;43052;52.588;13.396;2023-08-31T11:03:32;4.68;;;2.28;;
57191;SDS011;43052;52.588;13.396;2023-08-31T11:05:57;4.43;;;2.40;;
57191;SDS011;43052;52.588;13.396;2023-08-31T11:08:22;5.60;;;2.53;;
57191;SDS011;43052;52.588;13.396;2023-08-31T11:10:48;5.72;;;2.30;;
57191;SDS011;43052;52.588;13.396;2023-08-31T11:13:18;6.80;;;2.88;;
57191;SDS011;43052;52.588;13.396;2023-08-31T11:15:45;4.97;;;2.45;;
57191;SDS011;43052;52.588;13.396;2023-08-31T11:18:11;3.40;;;2.53;;
57191;SDS011;43052;52.588;13.396;2023-08-31T11:20:37;5.50;;;2.97;;
57191;SDS011;43052;52.588;13.396;2023-08-31T11:23:02;5.05;;;2.17;;
57191;SDS011;43052;52.588;13.396;2023-08-31T11:25:30;5.15;;;2.20;;
57191;SDS011;43052;52.588;13.396;2023-08-31T11:28:00;4.38;;;2.63;;
57191;SDS011;43052;52.588;13.396;2023-08-31T11:30:27;4.07;;;2.30;;
57191;SDS011;43052;52.588;13.396;2023-08-31T11:32:56;3.05;;;2.30;;
57191;SDS011;43052;52.588;13.396;2023-08-31T11:35:22;4.32;;;2.08;;
57191;SDS011;43052;52.588;13.396;2023-08-31T11:37:49;2.88;;;2.25;;
57191;SDS011;43052;52.588;13.396;2023-08-31T11:40:15;4.28;;;2.47;;
57191;SDS011;43052;52.588;13.396;2023-08-31T11:42:41;6.50;;;2.22;;
57191;SDS011;43052;52.588;13.396;2023-08-31T11:45:06;3.13;;;2.13;;
57191;SDS011;43052;52.588;13.396;2023-08-31T11:47:33;2.72;;;2.03;;
57191;SDS011;43052;52.588;13.396;2023-08-31T11:49:59;3.40;;;2.20;;
57191;SDS011;43052;52.588;13.396;2023-08-31T11:52:26;6.38;;;2.00;;
57191;SDS011;43052;52.588;13.396;2023-08-31T11:54:52;4.70;;;2.20;;
57191;SDS011;43052;52.588;13.396;2023-08-31T11:57:18;4.28;;;2.13;;
57191;SDS011;43052;52.588;13.396;2023-08-31T11:59:44;3.92;;;2.50;;
57191;SDS011;43052;52.588;13.396;2023-08-31T12:02:09;2.90;;;2.33;;
57191;SDS011;43052;52.588;13.396;2023-08-31T12:04:43;3.45;;;2.30;;
57191;SDS011;43052;52.588;13.396;2023-08-31T12:07:09;3.42;;;2.10;;
57191;SDS011;43052;52.588;13.396;2023-08-31T12:09:34;4.60;;;2.25;;
57191;SDS011;43052;52.588;13.396;2023-08-31T12:12:00;4.38;;;2.30;;
57191;SDS011;43052;52.588;13.396;2023-08-31T12:14:26;3.13;;;2.13;;
57191;SDS011;43052;52.588;13.396;2023-08-31T12:17:00;4.15;;;2.42;;
57191;SDS011;43052;52.588;13.396;2023-08-31T12:19:28;3.40;;;2.47;;
57191;SDS011;43052;52.588;13.396;2023-08-31T12:21:54;5.32;;;2.67;;
57191;SDS011;43052;52.588;13.396;2023-08-31T12:24:19;4.90;;;2.80;;
57191;SDS011;43052;52.588;13.396;2023-08-31T12:26:47;3.08;;;2.30;;
57191;SDS011;43052;52.588;13.396;2023-08-31T12:29:12;3.60;;;2.30;;
57191;SDS011;43052;52.588;13.396;2023-08-31T12:31:38;3.33;;;1.92;;
57191;SDS011;43052;52.588;13.396;2023-08-31T12:34:03;4.72;;;2.95;;
57191;SDS011;43052;52.588;13.396;2023-08-31T12:36:31;4.20;;;2.10;;
57191;SDS011;43052;52.588;13.396;2023-08-31T12:38:56;3.47;;;1.92;;
57191;SDS011;43052;52.588;13.396;2023-08-31T12:41:23;4.57;;;2.15;;
57191;SDS011;43052;52.588;13.396;2023-08-31T12:43:48;3.65;;;1.90;;
57191;SDS011;43052;52.588;13.396;2023-08-31T12:46:14;2.65;;;1.80;;
57191;SDS011;43052;52.588;13.396;2023-08-31T12:48:39;4.20;;;2.58;;
57191;SDS011;43052;52.588;13.396;2023-08-31T12:51:05;4.35;;;2.40;;
57191;SDS011;43052;52.588;13.396;2023-08-31T12:53:30;5.82;;;2.83;;
57191;SDS011;43052;52.588;13.396;2023-08-31T12:55:56;4.05;;;2.35;;
57191;SDS011;43052;52.588;13.396;2023-08-31T12:58:21;3.67;;;2.20;;
57191;SDS011;43052;52.588;13.396;2023-08-31T13:00:49;2.92;;;2.05;;
57191;SDS011;43052;52.588;13.396;2023-08-31T13:03:18;3.25;;;2.10;;
57191;SDS011;43052;52.588;13.396;2023-08-31T13:05:43;5.15;;;2.30;;
57191;SDS011;43052;52.588;13.396;2023-08-31T13:08:08;3.50;;;2.10;;
57191;SDS011;43052;52.588;13.396;2023-08-31T13:10:34;4.13;;;2.03;;
57191;SDS011;43052;52.588;13.396;2023-08-31T13:12:59;4.82;;;2.30;;
57191;SDS011;43052;52.588;13.396;2023-08-31T13:15:24;4.00;;;2.30;;
57191;SDS011;43052;52.588;13.396;2023-08-31T13:17:50;2.15;;;2.00;;
57191;SDS011;43052;52.588;13.396;2023-08-31T13:20:15;3.92;;;2.40;;
57191;SDS011;43052;52.588;13.396;2023-08-31T13:22:40;3.45;;;2.50;;
57191;SDS011;43052;52.588;13.396;2023-08-31T13:25:06;5.38;;;2.20;;
57191;SDS011;43052;52.588;13.396;2023-08-31T13:27:31;3.83;;;1.80;;
57191;SDS011;43052;52.588;13.396;2023-08-31T13:29:58;2.45;;;1.60;;
57191;SDS011;43052;52.588;13.396;2023-08-31T13:32:23;2.30;;;1.67;;
57191;SDS011;43052;52.588;13.396;2023-08-31T13:34:49;3.42;;;2.03;;
57191;SDS011;43052;52.588;13.396;2023-08-31T13:37:15;1.98;;;1.58;;
57191;SDS011;43052;52.588;13.396;2023-08-31T13:39:40;2.40;;;1.60;;
57191;SDS011;43052;52.588;13.396;2023-08-31T13:42:05;4.07;;;3.00;;
57191;SDS011;43052;52.588;13.396;2023-08-31T13:44:31;3.25;;;1.80;;
57191;SDS011;43052;52.588;13.396;2023-08-31T13:46:57;2.90;;;1.98;;
57191;SDS011;43052;52.588;13.396;2023-08-31T13:49:22;1.80;;;1.67;;
57191;SDS011;43052;52.588;13.396;2023-08-31T13:51:47;2.90;;;1.90;;
57191;SDS011;43052;52.588;13.396;2023-08-31T13:54:12;2.50;;;1.70;;
57191;SDS011;43052;52.588;13.396;2023-08-31T13:56:38;2.75;;;1.67;;
57191;SDS011;43052;52.588;13.396;2023-08-31T13:59:03;4.60;;;1.95;;
57191;SDS011;43052;52.588;13.396;2023-08-31T14:01:28;2.78;;;1.90;;
57191;SDS011;43052;52.588;13.396;2023-08-31T14:03:55;3.55;;;1.70;;
57191;SDS011;43052;52.588;13.396;2023-08-31T14:06:20;3.75;;;2.03;;
57191;SDS011;43052;52.588;13.396;2023-08-31T14:08:45;4.60;;;2.20;;
57191;SDS011;43052;52.588;13.396;2023-08-31T14:11:10;2.83;;;1.77;;
57191;SDS011;43052;52.588;13.396;2023-08-31T14:13:36;2.50;;;1.80;;
57191;SDS011;43052;52.588;13.396;2023-08-31T14:16:01;2.65;;;1.90;;
57191;SDS011;43052;52.588;13.396;2023-08-31T14:18:27;3.00;;;1.80;;
57191;SDS011;43052;52.588;13.396;2023-08-31T14:20:56;2.42;;;1.67;;
57191;SDS011;43052;52.588;13.396;2023-08-31T14:23:23;3.05;;;1.70;;
57191;SDS011;43052;52.588;13.396;2023-08-31T14:25:49;2.45;;;1.80;;
57191;SDS011;43052;52.588;13.396;2023-08-31T14:28:14;1.92;;;1.50;;
57191;SDS011;43052;52.588;13.396;2023-08-31T14:30:39;4.40;;;2.20;;
57191;SDS011;43052;52.588;13.396;2023-08-31T14:33:04;3.00;;;1.70;;
57191;SDS011;43052;52.588;13.396;2023-08-31T14:35:30;2.40;;;1.50;;
57191;SDS011;43052;52.588;13.396;2023-08-31T14:37:56;3.40;;;2.60;;
57191;SDS011;43052;52.588;13.396;2023-08-31T14:40:21;2.92;;;1.55;;